Details From CYEK - Arviat
To CYAY - St Anthony
Flight Number -
Tags Decoded
Created
Modified
Stats Distance 1,888 nm / 3,496 km
Max Altitude 0 ft / 0 m
Waypoints 7
Social Downloads 2
Likes 0
Share VATSIM

Download

Looking for another format? Having issues loading an existing format? Contact us
Advertisement - Login to hide

Notes

Decoded

Route

DUVER YMO YKL YWK YZV YNA YAY

ID Type Via Altitude Latitude Longitude Leg Dist Tot Dist Heading (true) Name
O DUVER FIX - 0 ft / 0 m 60.00000˚ -93.00000˚ - 0 nm - -
YMO VOR - 0 ft / 0 m 51.29147˚ -80.60728˚ 668 nm 668 nm 136° / 146° MOOSONEE VOR-DME
YKL VOR - 0 ft / 0 m 54.81444˚ -66.75500˚ 541 nm 1210 nm 62° / 73° SCHEFFERVILLE VOR-DME
YWK VOR - 0 ft / 0 m 52.96000˚ -66.85361˚ 111 nm 1321 nm 182° / 182° WABUSH VOR-DME
YZV VOR - 0 ft / 0 m 50.23211˚ -66.27386˚ 165 nm 1487 nm 172° / 173° SEPT-ILES VOR-DME
YNA VOR - 0 ft / 0 m 50.18361˚ -61.78111˚ 172 nm 1659 nm 89° / 93° NATASH VOR-DME
O YAY VOR - 0 ft / 0 m 51.39389˚ -56.08389˚ 228 nm 1887 nm 69° / 74° ST ANTHONY VOR-DME

Altitude Profile

Advertisement - Login to hide

Weather


0- 5 10 15 20 25 30 35+ Temperature / ° C

Clouds and Precipitation
Forecast for 2017-12-15 18:00 UTC. Updated an hour ago

Ground ~20,000 ft ~40,000 ft Winds

CYEK

Details ICAO CYEK (YEK)
Name ARVIAT
Region Canada
Timezone America/Rankin_Inlet (UTC-6.0)
Stats Elevation 32 ft / 10 m (AMSL)
Location 61.094167° -94.070834°
Runways 1
Magnetic Variation 3.188° W

METAR

CYEK 151420Z CCA 35010KT 1 1/4SM -SG SKC M24/M27 A2996 RMK SN6 SLP150

Decode

TAF

TAF CYEK 151138Z 1512/1524 34012KT P6SM FEW005 TEMPO 1512/1516 3SM IC BR BKN005 FM151600 32012KT P6SM FEW010 RMK FCST BASED ON AUTO OBS. NXT FCST BY 151800Z

Decode

Departure Runways

ID Width Length Bearing (true) Bearing (mag) Surface Threshold Offset Overrun Length
15T 100 ft / 30 m 3,991 ft / 1,216 m 149.03° 152.22° Gravel 0 ft / 0 m 0 ft / 0 m
33T 100 ft / 30 m 3,991 ft / 1,216 m 329.05° 332.24° Gravel 0 ft / 0 m 0 ft / 0 m

CYAY

Details ICAO CYAY (YAY)
Name ST ANTHONY
Region Canada
Timezone America/St_Johns (UTC-3.5)
Stats Elevation 108 ft / 33 m (AMSL)
Location 51.391900° -56.083147°
Runways 1
Magnetic Variation 19.922° W

METAR

CYAY 151417Z AUTO 21018G29KT 1SM -FZRA -SN FEW023 BKN031 OVC038 M06/M08 A2917 RMK VIS VRB 1/2-3 ICG SLP882

Decode

TAF

TAF TAF CYAY 151340Z 1514/1602 20020G35KT 1/2SM -SHSN BLSN VV008 TEMPO 1514/1602 3SM -SHSN OVC025 BECMG 1514/1516 21025G40KT RMK FCST BASED ON AUTO OBS. NXT FCST BY 152000Z

Decode

Destination Runways

ID Width Length Bearing (true) Bearing (mag) Surface Threshold Offset Overrun Length
10 100 ft / 30 m 3,992 ft / 1,217 m 79.79° 99.71° Asphalt 0 ft / 0 m 0 ft / 0 m
28 100 ft / 30 m 3,992 ft / 1,217 m 259.80° 279.72° Asphalt 0 ft / 0 m 0 ft / 0 m